Time;durP1;ratioP1;P1;durP2;ratioP2;P2;SDS_P1;SDS_P2;PMS_P1;PMS_P2;Temp;Humidity;BMP_temperature;BMP_pressure;BME280_temperature;BME280_humidity;BME280_pressure;Samples;Min_cycle;Max_cycle;Signal;HPM_P1;HPM_P2
2022/01/13 00:01:25;;;;;;;169.98;20.83;;;;;;;;;;5025634;27;108063;-65
2022/01/13 00:03:52;;;;;;;154.48;20.83;;;;;;;;;;5015546;27;107890;-65
2022/01/13 00:06:19;;;;;;;229.60;23.27;;;;;;;;;;4998789;27;107930;-64
2022/01/13 00:08:45;;;;;;;156.65;20.00;;;;;;;;;;5014033;27;106904;-64
2022/01/13 00:11:12;;;;;;;263.40;22.38;;;;;;;;;;5025686;27;107396;-65
2022/01/13 00:19:31;;;;;;;;;;;;;;;;;;5015801;27;106310;-65
2022/01/13 00:22:03;;;;;;;133.57;21.83;;;;;;;;;;5026286;27;137261;-65
2022/01/13 00:24:30;;;;;;;165.25;20.90;;;;;;;;;;5028120;27;106681;-66
2022/01/13 00:26:56;;;;;;;153.57;20.33;;;;;;;;;;5024374;27;107121;-64
2022/01/13 00:29:30;;;;;;;151.55;20.42;;;;;;;;;;5019492;27;106337;-64
2022/01/13 00:31:56;;;;;;;195.90;20.42;;;;;;;;;;5028080;27;107468;-64
2022/01/13 00:34:23;;;;;;;136.32;18.23;;;;;;;;;;4995821;28;105982;-65
2022/01/13 00:36:49;;;;;;;164.85;18.73;;;;;;;;;;5011124;27;107225;-64
2022/01/13 00:39:15;;;;;;;138.15;19.60;;;;;;;;;;5026030;27;106103;-65
2022/01/13 00:41:42;;;;;;;119.55;18.15;;;;;;;;;;5019574;27;106757;-64
2022/01/13 00:44:09;;;;;;;175.07;20.67;;;;;;;;;;5022674;27;108155;-65
2022/01/13 00:46:43;;;;;;;154.98;19.40;;;;;;;;;;5019010;27;105724;-64
2022/01/13 00:49:10;;;;;;;111.38;16.17;;;;;;;;;;5021136;27;106044;-64
2022/01/13 00:51:37;;;;;;;112.47;17.20;;;;;;;;;;5024755;27;109488;-64
2022/01/13 00:54:04;;;;;;;118.20;16.65;;;;;;;;;;5016682;27;106861;-64
2022/01/13 00:56:32;;;;;;;124.85;16.58;;;;;;;;;;5024569;27;106747;-65
2022/01/13 00:58:59;;;;;;;125.55;16.63;;;;;;;;;;5031002;27;107439;-64
2022/01/13 01:01:26;;;;;;;133.40;17.10;;;;;;;;;;5007982;27;108835;-64
2022/01/13 01:03:52;;;;;;;174.07;18.05;;;;;;;;;;5004151;27;109393;-64
2022/01/13 01:06:20;;;;;;;163.20;19.13;;;;;;;;;;5020999;27;106580;-64
2022/01/13 01:08:47;;;;;;;107.35;16.38;;;;;;;;;;5017689;27;107777;-64
2022/01/13 01:11:13;;;;;;;123.50;16.75;;;;;;;;;;5027562;27;106198;-65
2022/01/13 01:13:41;;;;;;;112.85;16.73;;;;;;;;;;5028578;27;106712;-64
2022/01/13 01:16:10;;;;;;;131.80;18.40;;;;;;;;;;5014647;27;107254;-64
2022/01/13 01:29:29;;;;;;;125.90;16.15;;;;;;;;;;5019010;27;106251;-64
2022/01/13 01:31:56;;;;;;;117.05;15.50;;;;;;;;;;5009215;27;107614;-64
2022/01/13 01:34:44;;;;;;;144.52;17.08;;;;;;;;;;5009330;27;106963;-64
2022/01/13 01:37:16;;;;;;;180.68;19.27;;;;;;;;;;5012849;27;107149;-64
2022/01/13 01:39:44;;;;;;;91.95;16.50;;;;;;;;;;5016378;27;107438;-64
2022/01/13 01:42:10;;;;;;;130.45;16.95;;;;;;;;;;5025803;27;107286;-66
2022/01/13 01:44:41;;;;;;;135.20;17.42;;;;;;;;;;5028247;27;109488;-64
2022/01/13 01:47:13;;;;;;;144.18;19.35;;;;;;;;;;5015899;27;106748;-64
2022/01/13 01:49:42;;;;;;;197.07;18.00;;;;;;;;;;5023727;27;106859;-64
2022/01/13 01:52:10;;;;;;;202.55;18.02;;;;;;;;;;5016684;27;107242;-64
2022/01/13 01:54:37;;;;;;;142.68;16.70;;;;;;;;;;5019187;27;105986;-65
2022/01/13 01:57:04;;;;;;;136.95;17.63;;;;;;;;;;5019178;27;107011;-64
2022/01/13 01:59:33;;;;;;;154.98;20.23;;;;;;;;;;5011537;27;107831;-64
2022/01/13 02:02:00;;;;;;;182.57;19.33;;;;;;;;;;5016149;22;111518;-68
2022/01/13 02:04:27;;;;;;;197.88;19.92;;;;;;;;;;5002330;28;105966;-69
2022/01/13 02:06:54;;;;;;;245.70;21.08;;;;;;;;;;4986670;28;106536;-69
2022/01/13 02:09:21;;;;;;;170.77;19.10;;;;;;;;;;4985741;28;106933;-69
2022/01/13 02:11:53;;;;;;;181.05;19.60;;;;;;;;;;4984565;28;108849;-69
2022/01/13 02:14:33;;;;;;;121.60;18.10;;;;;;;;;;4987051;28;106308;-68
2022/01/13 02:17:03;;;;;;;204.15;21.13;;;;;;;;;;4966253;28;108586;-68
2022/01/13 02:19:29;;;;;;;;;;;;;;;;;;4990015;28;107380;-68
2022/01/13 02:21:56;;;;;;;198.82;20.27;;;;;;;;;;4986426;28;119798;-68
2022/01/13 02:24:23;;;;;;;149.00;20.60;;;;;;;;;;4989647;28;108131;-68
2022/01/13 02:26:49;;;;;;;130.20;19.08;;;;;;;;;;4984241;28;107533;-68
2022/01/13 02:29:15;;;;;;;219.68;23.10;;;;;;;;;;4990549;28;106182;-68
2022/01/13 02:31:42;;;;;;;170.00;20.98;;;;;;;;;;4991880;28;108371;-68
2022/01/13 02:34:08;;;;;;;149.48;19.25;;;;;;;;;;4986351;28;107158;-69
2022/01/13 02:36:37;;;;;;;201.25;18.88;;;;;;;;;;4973398;28;106335;-68
2022/01/13 02:39:04;;;;;;;211.55;20.45;;;;;;;;;;4978601;28;106884;-68
2022/01/13 02:41:30;;;;;;;148.55;17.60;;;;;;;;;;4991740;28;105998;-68
2022/01/13 02:44:00;;;;;;;179.50;18.98;;;;;;;;;;4988599;28;106307;-68
2022/01/13 02:49:17;;;;;;;191.50;18.13;;;;;;;;;;4956889;28;106052;-71
2022/01/13 02:51:44;;;;;;;212.93;18.10;;;;;;;;;;4986158;28;107710;-68
2022/01/13 02:54:11;;;;;;;175.32;17.90;;;;;;;;;;4990937;28;105667;-70
2022/01/13 02:56:37;;;;;;;176.27;19.38;;;;;;;;;;4985225;28;106210;-71
2022/01/13 02:59:05;;;;;;;138.05;17.65;;;;;;;;;;4987233;28;107744;-68
2022/01/13 03:01:32;;;;;;;115.03;16.73;;;;;;;;;;4985911;28;106992;-68
2022/01/13 03:04:03;;;;;;;207.40;18.38;;;;;;;;;;4979039;28;106480;-68
2022/01/13 03:06:38;;;;;;;147.65;19.33;;;;;;;;;;4987747;28;106372;-68
2022/01/13 03:09:08;;;;;;;153.07;16.48;;;;;;;;;;4981909;28;106709;-68
2022/01/13 03:11:37;;;;;;;166.13;17.60;;;;;;;;;;4995101;28;106273;-68
2022/01/13 03:14:10;;;;;;;129.95;17.27;;;;;;;;;;4984612;28;107779;-68
2022/01/13 03:16:37;;;;;;;211.07;20.30;;;;;;;;;;4989078;28;106515;-67
2022/01/13 03:19:03;;;;;;;127.95;15.40;;;;;;;;;;4992079;28;108245;-67
2022/01/13 03:21:30;;;;;;;187.65;17.77;;;;;;;;;;4989728;28;105735;-70
2022/01/13 03:23:56;;;;;;;140.27;15.52;;;;;;;;;;4990724;28;106087;-70
2022/01/13 03:26:24;;;;;;;156.02;17.73;;;;;;;;;;4988144;28;106831;-71
2022/01/13 03:28:51;;;;;;;186.57;17.88;;;;;;;;;;4986130;28;107278;-70
2022/01/13 03:31:19;;;;;;;156.27;18.08;;;;;;;;;;4968210;28;108415;-67
2022/01/13 03:33:46;;;;;;;153.25;17.73;;;;;;;;;;4993488;28;106396;-68
2022/01/13 03:36:13;;;;;;;211.23;18.80;;;;;;;;;;4988397;28;106815;-71
2022/01/13 03:38:39;;;;;;;164.43;19.45;;;;;;;;;;4984324;28;107450;-70
2022/01/13 03:41:05;;;;;;;210.13;19.52;;;;;;;;;;4988956;28;107544;-70
2022/01/13 03:43:35;;;;;;;161.10;18.13;;;;;;;;;;4990690;28;108430;-70
2022/01/13 03:46:02;;;;;;;173.75;19.63;;;;;;;;;;4984955;28;106565;-70
2022/01/13 03:48:28;;;;;;;143.38;18.27;;;;;;;;;;4990060;28;107103;-68
2022/01/13 03:50:55;;;;;;;186.88;23.73;;;;;;;;;;4990919;28;106210;-67
2022/01/13 03:53:27;;;;;;;165.23;19.58;;;;;;;;;;4988212;28;107371;-70
2022/01/13 03:56:17;;;;;;;159.38;19.83;;;;;;;;;;4990262;28;106545;-70
2022/01/13 03:59:02;;;;;;;158.25;18.92;;;;;;;;;;4976616;28;109253;-68
2022/01/13 04:01:49;;;;;;;177.27;20.33;;;;;;;;;;4982893;28;106874;-71
2022/01/13 04:04:16;;;;;;;312.00;25.13;;;;;;;;;;4971219;28;108757;-70
2022/01/13 04:06:43;;;;;;;277.15;21.58;;;;;;;;;;4989017;28;107150;-68
2022/01/13 04:09:24;;;;;;;173.55;19.85;;;;;;;;;;4985203;28;106156;-71
2022/01/13 04:11:51;;;;;;;168.38;20.00;;;;;;;;;;4990674;28;106351;-68
2022/01/13 04:14:26;;;;;;;240.32;22.92;;;;;;;;;;4985236;28;106563;-70
2022/01/13 04:16:53;;;;;;;201.40;21.55;;;;;;;;;;4988664;28;106249;-68
2022/01/13 04:19:19;;;;;;;109.35;18.48;;;;;;;;;;4987425;28;107168;-68
2022/01/13 04:21:46;;;;;;;201.35;21.15;;;;;;;;;;4984203;28;106363;-68
2022/01/13 04:24:12;;;;;;;215.45;22.30;;;;;;;;;;4989515;28;107659;-68
2022/01/13 04:26:39;;;;;;;205.43;21.05;;;;;;;;;;4982423;28;107492;-69
2022/01/13 04:29:33;;;;;;;221.32;22.50;;;;;;;;;;4990037;28;106385;-68
2022/01/13 04:31:52;;;;;;;146.10;19.85;;;;;;;;;;4986992;28;109480;-68
2022/01/13 04:34:19;;;;;;;238.82;21.83;;;;;;;;;;4988007;28;106670;-70
2022/01/13 04:36:46;;;;;;;240.60;21.38;;;;;;;;;;4986356;28;106389;-69
2022/01/13 04:39:14;;;;;;;191.48;22.23;;;;;;;;;;4982832;28;106892;-69
2022/01/13 04:41:43;;;;;;;198.20;22.65;;;;;;;;;;4990168;28;106634;-69
2022/01/13 04:44:11;;;;;;;163.90;19.92;;;;;;;;;;4988098;28;107092;-69
2022/01/13 04:46:37;;;;;;;155.05;20.80;;;;;;;;;;4986862;28;106950;-70
2022/01/13 04:49:04;;;;;;;141.55;18.77;;;;;;;;;;4980456;28;106159;-69
2022/01/13 04:51:31;;;;;;;152.32;20.23;;;;;;;;;;4979575;28;106030;-69
2022/01/13 04:53:57;;;;;;;169.27;20.75;;;;;;;;;;4981707;28;107456;-68
2022/01/13 04:59:06;;;;;;;170.32;20.15;;;;;;;;;;4979520;28;106182;-69
2022/01/13 05:01:32;;;;;;;144.23;19.58;;;;;;;;;;4990325;28;107132;-68
2022/01/13 05:03:59;;;;;;;167.05;19.55;;;;;;;;;;4982891;28;106699;-68
2022/01/13 05:06:26;;;;;;;240.88;22.38;;;;;;;;;;4987806;28;106937;-69
2022/01/13 05:08:52;;;;;;;204.43;21.08;;;;;;;;;;4988507;28;106436;-67
2022/01/13 05:11:19;;;;;;;109.32;18.70;;;;;;;;;;4984839;28;109353;-68
2022/01/13 05:13:46;;;;;;;125.13;17.95;;;;;;;;;;4985957;28;107835;-68
2022/01/13 05:16:27;;;;;;;158.18;19.80;;;;;;;;;;4986796;28;106529;-69
2022/01/13 05:21:24;;;;;;;101.93;19.02;;;;;;;;;;4988371;28;106501;-69
2022/01/13 05:23:52;;;;;;;143.93;19.73;;;;;;;;;;4986171;28;106416;-69
2022/01/13 05:26:19;;;;;;;174.65;21.42;;;;;;;;;;4984672;28;107633;-69
2022/01/13 05:28:46;;;;;;;173.73;20.98;;;;;;;;;;4988502;28;106715;-69
2022/01/13 05:31:12;;;;;;;172.65;21.02;;;;;;;;;;4969238;28;106326;-68
2022/01/13 05:33:39;;;;;;;161.18;20.95;;;;;;;;;;4987020;28;107446;-69
2022/01/13 05:36:05;;;;;;;215.80;22.88;;;;;;;;;;4989450;28;106193;-68
2022/01/13 05:38:31;;;;;;;177.27;21.35;;;;;;;;;;4975672;28;105882;-69
2022/01/13 05:40:58;;;;;;;222.23;23.58;;;;;;;;;;4983674;28;106591;-68
2022/01/13 05:43:25;;;;;;;144.45;20.98;;;;;;;;;;4980719;28;106387;-69
2022/01/13 05:45:51;;;;;;;200.27;22.95;;;;;;;;;;4991718;28;106376;-69
2022/01/13 05:48:18;;;;;;;163.02;21.02;;;;;;;;;;4986661;28;105824;-68
2022/01/13 05:50:44;;;;;;;165.07;22.30;;;;;;;;;;4992269;28;106181;-68
2022/01/13 05:53:10;;;;;;;185.30;21.23;;;;;;;;;;4987654;28;106314;-71
2022/01/13 05:55:38;;;;;;;252.45;24.35;;;;;;;;;;4985393;28;106825;-68
2022/01/13 05:58:05;;;;;;;191.25;22.92;;;;;;;;;;4991744;28;106209;-68
2022/01/13 06:00:31;;;;;;;149.35;20.65;;;;;;;;;;4990847;28;107243;-69
2022/01/13 06:02:58;;;;;;;178.30;23.58;;;;;;;;;;4990859;28;107375;-68
2022/01/13 06:05:25;;;;;;;169.95;22.73;;;;;;;;;;4990771;28;105996;-69
2022/01/13 06:07:53;;;;;;;163.35;22.75;;;;;;;;;;4995812;28;108038;-68
2022/01/13 06:10:20;;;;;;;156.70;23.23;;;;;;;;;;4980704;28;108363;-68
2022/01/13 06:12:47;;;;;;;169.77;21.67;;;;;;;;;;4984357;28;106514;-68
2022/01/13 06:15:14;;;;;;;171.85;20.70;;;;;;;;;;4991885;28;106805;-69
2022/01/13 06:17:41;;;;;;;172.35;21.42;;;;;;;;;;4991316;28;106834;-69
2022/01/13 06:20:09;;;;;;;188.23;20.92;;;;;;;;;;4989360;28;107249;-69
2022/01/13 06:22:36;;;;;;;157.52;20.63;;;;;;;;;;4972215;28;106857;-68
2022/01/13 06:25:04;;;;;;;214.27;21.63;;;;;;;;;;4990829;28;106664;-68
2022/01/13 06:27:30;;;;;;;131.50;20.55;;;;;;;;;;4972623;28;107390;-69
2022/01/13 06:29:56;;;;;;;150.38;21.20;;;;;;;;;;4976972;28;106283;-67
2022/01/13 06:32:23;;;;;;;169.10;21.83;;;;;;;;;;4990957;28;106469;-68
2022/01/13 06:34:49;;;;;;;166.07;19.75;;;;;;;;;;4986584;28;106041;-68
2022/01/13 06:37:16;;;;;;;121.95;18.85;;;;;;;;;;4991537;28;106391;-68
2022/01/13 06:39:43;;;;;;;172.93;19.80;;;;;;;;;;4987994;28;107538;-68
2022/01/13 06:42:10;;;;;;;191.48;21.02;;;;;;;;;;4991500;28;106212;-69
2022/01/13 06:44:37;;;;;;;146.00;19.38;;;;;;;;;;4972197;28;107568;-68
2022/01/13 06:47:04;;;;;;;177.77;21.17;;;;;;;;;;4991492;28;107412;-69
2022/01/13 06:49:30;;;;;;;148.40;18.73;;;;;;;;;;4982313;28;106907;-69
2022/01/13 06:51:57;;;;;;;126.60;19.15;;;;;;;;;;4976004;28;107630;-68
2022/01/13 06:54:24;;;;;;;176.95;20.30;;;;;;;;;;4986047;28;107213;-69
2022/01/13 06:56:51;;;;;;;206.75;20.55;;;;;;;;;;4991130;28;106950;-68
2022/01/13 06:59:18;;;;;;;199.93;20.92;;;;;;;;;;4989818;28;106898;-69
2022/01/13 07:01:44;;;;;;;143.27;18.95;;;;;;;;;;4989567;28;106089;-68
2022/01/13 07:04:13;;;;;;;190.45;20.10;;;;;;;;;;4982616;28;106659;-68
2022/01/13 07:06:39;;;;;;;129.90;18.70;;;;;;;;;;4989578;28;107168;-69
2022/01/13 07:09:11;;;;;;;137.93;18.77;;;;;;;;;;4982711;28;106201;-68
2022/01/13 07:11:39;;;;;;;147.63;20.45;;;;;;;;;;4992007;28;107372;-69
2022/01/13 07:14:06;;;;;;;142.77;21.85;;;;;;;;;;4991221;28;105510;-68
2022/01/13 07:16:33;;;;;;;175.45;21.05;;;;;;;;;;4989400;28;106207;-68
2022/01/13 07:19:01;;;;;;;140.98;18.23;;;;;;;;;;4976539;28;107509;-68
2022/01/13 07:21:27;;;;;;;101.20;17.30;;;;;;;;;;4990173;28;107459;-69
2022/01/13 07:23:54;;;;;;;124.07;18.60;;;;;;;;;;4984079;28;107778;-67
2022/01/13 07:26:20;;;;;;;112.15;16.73;;;;;;;;;;4977878;28;106625;-68
2022/01/13 07:28:47;;;;;;;137.70;18.73;;;;;;;;;;4989679;28;106206;-67
2022/01/13 07:31:14;;;;;;;101.85;16.77;;;;;;;;;;4985015;28;106292;-70
2022/01/13 07:33:41;;;;;;;141.25;18.23;;;;;;;;;;4992556;28;107539;-69
2022/01/13 07:36:07;;;;;;;111.25;17.08;;;;;;;;;;4984917;28;107111;-70
2022/01/13 07:38:34;;;;;;;135.57;17.17;;;;;;;;;;4979192;28;107207;-69
2022/01/13 07:41:00;;;;;;;134.23;17.83;;;;;;;;;;4990087;28;106199;-66
2022/01/13 07:43:27;;;;;;;101.90;15.95;;;;;;;;;;4989735;28;106565;-66
2022/01/13 07:45:54;;;;;;;120.22;16.70;;;;;;;;;;4983406;28;106855;-67
2022/01/13 07:48:20;;;;;;;120.15;18.75;;;;;;;;;;4988977;28;107151;-66
2022/01/13 07:50:47;;;;;;;110.25;16.25;;;;;;;;;;4983255;28;107686;-67
2022/01/13 07:53:14;;;;;;;88.30;14.45;;;;;;;;;;4969274;28;107412;-68
2022/01/13 07:55:42;;;;;;;110.05;16.23;;;;;;;;;;4987155;28;108526;-67
2022/01/13 07:58:09;;;;;;;106.47;15.85;;;;;;;;;;4985356;28;108012;-67
2022/01/13 08:00:36;;;;;;;95.93;16.80;;;;;;;;;;4987552;28;108711;-67
2022/01/13 08:03:02;;;;;;;113.45;17.67;;;;;;;;;;4986471;28;106910;-67
2022/01/13 08:05:29;;;;;;;115.82;16.23;;;;;;;;;;4989075;28;106277;-67
2022/01/13 08:07:55;;;;;;;106.75;17.55;;;;;;;;;;4962676;28;106639;-67
2022/01/13 08:10:22;;;;;;;108.63;15.63;;;;;;;;;;4963753;28;108250;-67
2022/01/13 08:12:48;;;;;;;119.60;17.90;;;;;;;;;;4987140;28;106469;-67
2022/01/13 08:15:15;;;;;;;156.38;18.05;;;;;;;;;;4975472;28;107253;-68
2022/01/13 08:20:28;;;;;;;122.10;17.88;;;;;;;;;;4982175;28;106633;-67
2022/01/13 08:22:54;;;;;;;117.07;17.05;;;;;;;;;;4987042;28;107665;-67
2022/01/13 08:25:21;;;;;;;127.15;16.80;;;;;;;;;;4969994;28;109159;-67
2022/01/13 08:27:48;;;;;;;112.70;17.00;;;;;;;;;;4984933;28;105826;-67
2022/01/13 08:30:14;;;;;;;115.78;17.38;;;;;;;;;;4987589;28;106793;-68
2022/01/13 08:32:41;;;;;;;98.55;16.85;;;;;;;;;;4980803;28;106894;-67
2022/01/13 08:35:08;;;;;;;86.18;16.38;;;;;;;;;;4988376;28;106605;-68
2022/01/13 08:37:34;;;;;;;118.28;17.15;;;;;;;;;;4992906;28;106410;-67
2022/01/13 08:40:02;;;;;;;110.75;18.33;;;;;;;;;;4983314;28;106775;-67
2022/01/13 08:42:29;;;;;;;88.65;17.70;;;;;;;;;;4990346;28;106592;-67
2022/01/13 08:44:55;;;;;;;120.55;17.23;;;;;;;;;;4978134;28;107747;-67
2022/01/13 08:47:21;;;;;;;125.80;19.00;;;;;;;;;;4986930;28;106310;-67
2022/01/13 08:49:48;;;;;;;129.10;18.15;;;;;;;;;;4984179;28;108574;-67
2022/01/13 08:52:15;;;;;;;138.82;19.90;;;;;;;;;;4970439;28;107978;-67
2022/01/13 08:54:45;;;;;;;122.28;18.17;;;;;;;;;;4986453;28;107159;-67
2022/01/13 08:57:12;;;;;;;104.60;18.10;;;;;;;;;;4987467;28;107997;-67
2022/01/13 08:59:38;;;;;;;138.40;19.52;;;;;;;;;;4979127;28;107649;-68
2022/01/13 09:02:05;;;;;;;105.38;18.25;;;;;;;;;;4985973;28;105655;-67
2022/01/13 09:04:32;;;;;;;141.68;19.88;;;;;;;;;;4985470;28;109694;-68
2022/01/13 09:06:58;;;;;;;117.30;17.90;;;;;;;;;;4985776;28;105991;-68
2022/01/13 09:09:24;;;;;;;130.07;19.10;;;;;;;;;;4977759;28;106560;-68
2022/01/13 09:11:51;;;;;;;154.05;20.75;;;;;;;;;;4987348;28;107311;-68
2022/01/13 09:14:24;;;;;;;163.32;20.15;;;;;;;;;;4987090;28;106893;-67
2022/01/13 09:16:50;;;;;;;121.65;19.25;;;;;;;;;;4977839;28;108043;-73
2022/01/13 09:19:18;;;;;;;113.43;18.65;;;;;;;;;;4978298;28;107821;-66
2022/01/13 09:21:45;;;;;;;125.35;18.98;;;;;;;;;;4991542;28;106683;-68
2022/01/13 09:24:13;;;;;;;115.10;17.85;;;;;;;;;;4983563;28;107270;-68
2022/01/13 09:26:40;;;;;;;117.60;19.45;;;;;;;;;;4989292;28;106231;-67
2022/01/13 09:29:07;;;;;;;116.35;19.40;;;;;;;;;;4987816;28;106792;-67
2022/01/13 09:31:35;;;;;;;91.05;18.25;;;;;;;;;;4966432;28;106498;-67
2022/01/13 09:34:02;;;;;;;140.02;20.90;;;;;;;;;;4976087;28;107667;-67
2022/01/13 09:36:29;;;;;;;107.22;18.33;;;;;;;;;;4983490;28;106330;-67
2022/01/13 09:38:57;;;;;;;126.82;19.85;;;;;;;;;;4987580;28;106397;-67
2022/01/13 09:41:24;;;;;;;135.43;20.60;;;;;;;;;;4987828;28;106509;-69
2022/01/13 09:43:50;;;;;;;110.55;18.80;;;;;;;;;;4988696;28;106919;-67
2022/01/13 09:46:17;;;;;;;119.57;19.95;;;;;;;;;;4972871;28;106748;-67
2022/01/13 09:48:44;;;;;;;131.48;19.77;;;;;;;;;;4969895;28;107585;-67
2022/01/13 09:51:11;;;;;;;115.50;19.85;;;;;;;;;;4983054;28;108795;-67
2022/01/13 09:53:37;;;;;;;137.77;21.45;;;;;;;;;;4986260;28;106721;-68
2022/01/13 09:56:04;;;;;;;105.30;19.77;;;;;;;;;;4970544;28;109799;-66
2022/01/13 09:58:31;;;;;;;120.55;21.60;;;;;;;;;;4990583;28;109211;-67
2022/01/13 10:00:57;;;;;;;123.80;19.85;;;;;;;;;;4985045;28;107918;-66
2022/01/13 10:03:27;;;;;;;98.38;20.20;;;;;;;;;;4984393;28;107192;-66
2022/01/13 10:05:55;;;;;;;139.80;19.40;;;;;;;;;;4990037;28;106589;-68
2022/01/13 10:08:22;;;;;;;102.32;20.15;;;;;;;;;;4978689;28;106715;-66
2022/01/13 10:10:48;;;;;;;95.45;20.42;;;;;;;;;;4986705;28;110146;-67
2022/01/13 10:13:27;;;;;;;120.72;21.35;;;;;;;;;;4983121;28;106247;-68
2022/01/13 10:18:51;;;;;;;160.88;22.48;;;;;;;;;;4966843;28;106451;-66
2022/01/13 10:21:18;;;;;;;96.95;20.80;;;;;;;;;;4985095;28;107416;-67
2022/01/13 10:24:03;;;;;;;122.40;21.23;;;;;;;;;;4981114;28;108303;-65
2022/01/13 10:26:34;;;;;;;92.53;19.23;;;;;;;;;;4981855;28;106475;-66
2022/01/13 10:29:01;;;;;;;106.88;20.20;;;;;;;;;;4991049;28;106314;-66
2022/01/13 10:31:46;;;;;;;114.18;21.27;;;;;;;;;;4986944;28;107005;-67
2022/01/13 10:34:32;;;;;;;94.85;18.95;;;;;;;;;;4986705;28;106573;-66
2022/01/13 10:37:00;;;;;;;119.93;20.38;;;;;;;;;;4983380;28;105968;-67
2022/01/13 10:39:44;;;;;;;124.75;21.35;;;;;;;;;;4988840;28;107372;-65
2022/01/13 10:42:21;;;;;;;98.90;18.77;;;;;;;;;;4990183;28;106154;-66
2022/01/13 10:44:54;;;;;;;96.35;17.90;;;;;;;;;;4989555;28;106736;-67
2022/01/13 10:47:20;;;;;;;84.93;18.73;;;;;;;;;;4988919;28;106479;-67
2022/01/13 10:49:50;;;;;;;91.43;20.80;;;;;;;;;;4985590;28;106802;-65
2022/01/13 10:52:26;;;;;;;77.32;18.50;;;;;;;;;;4989322;28;108672;-66
2022/01/13 10:54:54;;;;;;;101.93;20.42;;;;;;;;;;4989164;28;106595;-66
2022/01/13 10:57:22;;;;;;;94.35;19.23;;;;;;;;;;4968195;28;106694;-65
2022/01/13 10:59:49;;;;;;;85.95;19.45;;;;;;;;;;4986643;28;107474;-65
2022/01/13 11:02:19;;;;;;;88.05;19.88;;;;;;;;;;4987573;28;107743;-65
2022/01/13 11:04:46;;;;;;;89.45;19.75;;;;;;;;;;4983152;28;106004;-65
2022/01/13 11:07:14;;;;;;;84.70;21.02;;;;;;;;;;4991378;28;106373;-67
2022/01/13 11:09:43;;;;;;;89.43;20.08;;;;;;;;;;4988996;28;108410;-65
2022/01/13 11:12:14;;;;;;;91.03;22.87;;;;;;;;;;4984457;28;106340;-66
2022/01/13 11:14:42;;;;;;;84.50;22.08;;;;;;;;;;4993597;28;106138;-66
2022/01/13 11:17:10;;;;;;;84.10;21.08;;;;;;;;;;4971653;28;108686;-65
2022/01/13 11:19:44;;;;;;;69.82;19.10;;;;;;;;;;4983098;28;107766;-65
2022/01/13 11:22:12;;;;;;;62.42;17.60;;;;;;;;;;4986347;28;107792;-65
2022/01/13 11:24:38;;;;;;;82.47;19.02;;;;;;;;;;4987173;28;108166;-66
2022/01/13 11:27:05;;;;;;;76.03;18.20;;;;;;;;;;4983880;28;106876;-65
2022/01/13 11:29:33;;;;;;;76.43;17.80;;;;;;;;;;4990225;28;106132;-65
2022/01/13 11:32:01;;;;;;;75.28;17.65;;;;;;;;;;4969628;28;107196;-63
2022/01/13 11:34:27;;;;;;;99.40;19.50;;;;;;;;;;4992091;28;106844;-63
2022/01/13 11:36:54;;;;;;;82.63;18.35;;;;;;;;;;4988149;28;106400;-64
2022/01/13 11:39:35;;;;;;;86.40;18.88;;;;;;;;;;4989301;28;107450;-66
2022/01/13 11:42:08;;;;;;;92.75;19.95;;;;;;;;;;4987866;28;107006;-68
2022/01/13 11:44:36;;;;;;;76.60;19.58;;;;;;;;;;4982809;28;107051;-66
2022/01/13 11:47:08;;;;;;;100.80;20.30;;;;;;;;;;4986701;28;107681;-66
2022/01/13 11:49:44;;;;;;;88.45;20.77;;;;;;;;;;4986742;28;106262;-66
2022/01/13 11:52:16;;;;;;;88.95;19.25;;;;;;;;;;4988288;28;105660;-65
2022/01/13 11:54:43;;;;;;;88.45;20.33;;;;;;;;;;4988133;28;107425;-64
2022/01/13 11:57:35;;;;;;;132.75;19.80;;;;;;;;;;4989475;28;106328;-64
2022/01/13 12:00:01;;;;;;;112.20;21.90;;;;;;;;;;4987172;28;107516;-65
2022/01/13 12:02:41;;;;;;;87.82;19.15;;;;;;;;;;4979653;28;106912;-65
2022/01/13 12:05:14;;;;;;;103.63;21.30;;;;;;;;;;4986761;28;106735;-65
2022/01/13 12:07:45;;;;;;;110.00;20.40;;;;;;;;;;4980714;28;108040;-64
2022/01/13 12:10:24;;;;;;;83.05;19.38;;;;;;;;;;4986935;28;108274;-66
2022/01/13 12:12:51;;;;;;;92.97;19.93;;;;;;;;;;4982544;28;106712;-64
2022/01/13 12:15:22;;;;;;;112.10;19.80;;;;;;;;;;4965081;28;107783;-63
2022/01/13 12:17:50;;;;;;;94.63;21.30;;;;;;;;;;4985942;28;106323;-63
2022/01/13 12:20:21;;;;;;;106.72;22.35;;;;;;;;;;4985616;28;107340;-66
2022/01/13 12:23:01;;;;;;;126.30;20.98;;;;;;;;;;4982869;28;107083;-64
2022/01/13 12:25:32;;;;;;;90.22;19.58;;;;;;;;;;4984493;28;107245;-65
2022/01/13 12:28:09;;;;;;;89.93;21.85;;;;;;;;;;4984532;28;107560;-66
2022/01/13 12:30:36;;;;;;;104.18;21.08;;;;;;;;;;4984561;28;105984;-67
2022/01/13 12:33:09;;;;;;;92.75;19.48;;;;;;;;;;4984630;28;106933;-66
2022/01/13 12:35:39;;;;;;;71.20;18.70;;;;;;;;;;4968825;28;107507;-66
2022/01/13 12:38:13;;;;;;;105.13;21.80;;;;;;;;;;4984889;28;106353;-67
2022/01/13 12:40:42;;;;;;;98.85;20.30;;;;;;;;;;4984641;28;107426;-68
2022/01/13 12:46:03;;;;;;;90.55;20.88;;;;;;;;;;4981998;28;105604;-65
2022/01/13 12:48:29;;;;;;;82.30;19.77;;;;;;;;;;4981293;28;106322;-65
2022/01/13 12:50:57;;;;;;;104.93;21.50;;;;;;;;;;4970823;28;106435;-64
2022/01/13 12:53:26;;;;;;;117.15;21.45;;;;;;;;;;4986654;28;106563;-66
2022/01/13 12:56:00;;;;;;;96.05;22.38;;;;;;;;;;4987466;28;107574;-65
2022/01/13 12:58:28;;;;;;;88.50;22.30;;;;;;;;;;4983448;28;108455;-65
2022/01/13 13:01:03;;;;;;;93.53;22.35;;;;;;;;;;4983932;28;108055;-65
2022/01/13 13:03:30;;;;;;;102.05;22.40;;;;;;;;;;4988154;28;106463;-65
2022/01/13 13:05:57;;;;;;;97.35;22.42;;;;;;;;;;4988902;28;105892;-65
2022/01/13 13:08:25;;;;;;;100.13;21.52;;;;;;;;;;4983388;28;106736;-66
2022/01/13 13:10:55;;;;;;;95.13;21.83;;;;;;;;;;4982773;28;106939;-65
2022/01/13 13:13:22;;;;;;;79.35;20.30;;;;;;;;;;4985305;28;107079;-65
2022/01/13 13:15:51;;;;;;;79.05;20.70;;;;;;;;;;4983203;28;107600;-64
2022/01/13 13:18:18;;;;;;;74.45;17.95;;;;;;;;;;4989018;28;106742;-65
2022/01/13 13:20:48;;;;;;;107.80;22.25;;;;;;;;;;4989421;28;107862;-65
2022/01/13 13:23:14;;;;;;;;;;;;;;;;;;4987691;28;106635;-66
2022/01/13 13:25:48;;;;;;;81.43;19.77;;;;;;;;;;4991464;28;117565;-65
2022/01/13 13:28:24;;;;;;;94.63;20.23;;;;;;;;;;4981145;28;106354;-66
2022/01/13 13:30:52;;;;;;;106.30;21.80;;;;;;;;;;4983751;28;105964;-64
2022/01/13 13:33:43;;;;;;;77.78;20.67;;;;;;;;;;4986123;28;106118;-65
2022/01/13 13:36:11;;;;;;;87.47;19.27;;;;;;;;;;4970681;28;106965;-66
2022/01/13 13:38:45;;;;;;;78.60;20.13;;;;;;;;;;4988989;28;106814;-68
2022/01/13 13:41:12;;;;;;;82.75;20.58;;;;;;;;;;4984500;28;107006;-66
2022/01/13 13:43:59;;;;;;;81.57;20.65;;;;;;;;;;4983676;28;107404;-66
2022/01/13 13:46:26;;;;;;;77.10;18.50;;;;;;;;;;4973585;28;106607;-67
2022/01/13 13:48:53;;;;;;;90.85;18.40;;;;;;;;;;4992552;28;107972;-66
2022/01/13 13:51:21;;;;;;;72.93;18.52;;;;;;;;;;4969711;28;106875;-66
2022/01/13 13:54:05;;;;;;;67.63;17.60;;;;;;;;;;4986581;28;106364;-66
2022/01/13 13:56:34;;;;;;;100.78;19.85;;;;;;;;;;4980070;28;107388;-67
2022/01/13 13:59:00;;;;;;;79.72;17.80;;;;;;;;;;4985284;28;105825;-66
2022/01/13 14:01:28;;;;;;;70.82;18.05;;;;;;;;;;4982713;28;107505;-66
2022/01/13 14:03:54;;;;;;;72.07;18.40;;;;;;;;;;4967455;28;108226;-66
2022/01/13 14:06:37;;;;;;;65.50;18.50;;;;;;;;;;4978865;28;106161;-67
2022/01/13 14:09:03;;;;;;;81.13;19.23;;;;;;;;;;4979444;28;106159;-67
2022/01/13 14:11:46;;;;;;;70.50;17.45;;;;;;;;;;4973892;28;106504;-67
2022/01/13 14:14:13;;;;;;;85.25;20.15;;;;;;;;;;4985167;28;107648;-66
2022/01/13 14:16:40;;;;;;;81.97;19.40;;;;;;;;;;4984744;28;106871;-66
2022/01/13 14:19:09;;;;;;;74.85;18.80;;;;;;;;;;4988391;28;106021;-66
2022/01/13 14:21:45;;;;;;;88.47;18.40;;;;;;;;;;4966585;28;107536;-66
2022/01/13 14:24:12;;;;;;;72.32;16.80;;;;;;;;;;4988094;28;107260;-65
2022/01/13 14:26:38;;;;;;;78.70;19.95;;;;;;;;;;4991572;28;107420;-67
2022/01/13 14:29:05;;;;;;;71.03;19.35;;;;;;;;;;4989715;28;107236;-65
2022/01/13 14:31:36;;;;;;;84.22;20.13;;;;;;;;;;4973794;28;107347;-66
2022/01/13 14:34:03;;;;;;;85.18;19.17;;;;;;;;;;4992530;28;108788;-65
2022/01/13 14:36:36;;;;;;;91.68;18.88;;;;;;;;;;4988022;28;107719;-66
2022/01/13 14:39:04;;;;;;;86.47;19.50;;;;;;;;;;4995586;28;106492;-66